Time;durP1;ratioP1;P1;durP2;ratioP2;P2;SDS_P1;SDS_P2;PMS_P1;PMS_P2;Temp;Humidity;BMP_temperature;BMP_pressure;BME280_temperature;BME280_humidity;BME280_pressure;Samples;Min_cycle;Max_cycle;Signal;HPM_P1;HPM_P2
2022/07/21 15:07:10;;;;;;;9.65;8.85;;;45.90;29.50;;;36.92;23.62;95941.59;4985380;28;20369;-49
2022/07/21 15:09:35;;;;;;;10.43;9.55;;;46.00;26.10;;;37.03;23.40;95940.19;4948551;28;20476;-54
2022/07/21 15:12:02;;;;;;;11.68;9.88;;;46.90;24.30;;;37.09;23.77;95934.91;4965512;28;20022;-55
2022/07/21 15:14:33;;;;;;;10.35;9.45;;;47.70;23.00;;;37.40;23.18;95934.63;4965895;28;20113;-55
2022/07/21 15:16:59;;;;;;;10.02;9.23;;;48.50;21.70;;;37.87;22.84;95937.13;4943710;28;20041;-50
2022/07/21 15:19:28;;;;;;;9.93;9.07;;;49.30;21.00;;;37.68;23.06;95928.44;4975080;28;20113;-55
2022/07/21 15:21:55;;;;;;;11.25;10.45;;;50.10;20.30;;;37.77;23.27;95933.38;4951082;28;20114;-52
2022/07/21 15:24:30;;;;;;;12.10;11.02;;;50.70;19.60;;;37.62;23.07;95929.38;4944752;28;20152;-51
2022/07/21 15:26:56;;;;;;;11.35;10.45;;;51.40;19.00;;;37.80;22.96;95923.41;4953212;28;20034;-53
2022/07/21 15:29:33;;;;;;;12.38;11.48;;;52.00;18.50;;;37.97;22.56;95924.97;4959248;28;20026;-50
2022/07/21 15:31:59;;;;;;;11.73;10.93;;;52.60;17.90;;;37.78;22.65;95923.03;4965046;28;20048;-54
2022/07/21 15:34:25;;;;;;;12.57;11.57;;;53.20;17.40;;;37.57;22.36;95922.34;4956318;28;20015;-56
2022/07/21 15:36:57;;;;;;;14.07;12.90;;;53.80;17.00;;;37.41;22.79;95919.53;4959279;28;20035;-52
2022/07/21 15:39:23;;;;;;;14.13;12.77;;;54.10;16.50;;;37.75;22.53;95919.13;4963863;28;20033;-56
2022/07/21 15:41:49;;;;;;;15.55;14.55;;;54.50;16.20;;;38.45;22.27;95914.97;4964918;28;20528;-56
2022/07/21 15:44:18;;;;;;;15.65;14.60;;;55.00;15.90;;;39.09;21.00;95920.72;4964969;28;20037;-52
2022/07/21 15:46:50;;;;;;;14.80;13.80;;;55.40;15.50;;;39.37;20.75;95923.91;4963006;28;20034;-49
2022/07/21 15:49:18;;;;;;;17.85;16.75;;;56.00;15.20;;;39.59;20.55;95924.00;4964829;28;20030;-51
2022/07/21 15:51:47;;;;;;;18.65;17.38;;;56.40;15.10;;;39.81;20.33;95918.53;4961334;28;20048;-65
2022/07/21 15:54:19;;;;;;;19.45;18.05;;;56.90;14.70;;;39.94;19.60;95919.28;4950259;28;20014;-57
2022/07/21 15:56:45;;;;;;;20.85;19.60;;;57.20;14.60;;;39.97;19.91;95910.03;4965360;28;20027;-58
2022/07/21 15:59:34;;;;;;;21.33;19.92;;;57.50;14.40;;;39.32;21.17;95914.09;4944238;29;20531;-57
2022/07/21 16:02:12;;;;;;;20.55;19.00;;;57.60;14.30;;;39.87;20.02;95906.38;4955621;28;20051;-56
2022/07/21 16:04:40;;;;;;;19.75;18.45;;;57.40;14.30;;;39.55;20.47;95905.38;4969936;28;20396;-56
2022/07/21 16:07:09;;;;;;;17.58;16.33;;;57.30;14.00;;;39.67;20.59;95901.00;4983879;28;20123;-57
2022/07/21 16:09:37;;;;;;;17.13;16.10;;;57.10;14.00;;;39.62;20.10;95909.19;4997128;28;20026;-56
2022/07/21 16:12:06;;;;;;;15.27;14.33;;;57.00;13.90;;;39.28;20.89;95903.06;4954525;28;20027;-54
2022/07/21 16:14:32;;;;;;;16.30;15.10;;;56.80;13.90;;;39.15;20.77;95905.03;4952210;28;20047;-53
2022/07/21 16:17:05;;;;;;;16.40;15.40;;;56.60;13.90;;;38.85;20.98;95895.97;4965068;28;20114;-56
2022/07/21 16:19:33;;;;;;;15.35;14.38;;;56.50;13.90;;;38.82;20.94;95888.47;4996157;28;20386;-56
2022/07/21 16:22:02;;;;;;;15.68;14.57;;;56.30;13.80;;;38.80;21.47;95888.16;4950537;28;20068;-56
2022/07/21 16:24:28;;;;;;;12.95;12.13;;;56.20;13.90;;;39.09;20.45;95893.66;4932080;29;20027;-56
2022/07/21 16:26:54;;;;;;;13.13;12.27;;;56.10;13.90;;;39.20;20.42;95903.69;4923082;29;20031;-55
2022/07/21 16:29:23;;;;;;;13.40;12.50;;;56.00;13.70;;;39.37;20.25;95896.03;4940459;28;20019;-55
2022/07/21 16:31:58;;;;;;;14.32;13.32;;;56.20;13.70;;;39.36;20.21;95894.47;4943389;29;20037;-56
2022/07/21 16:34:28;;;;;;;13.73;12.90;;;56.30;13.70;;;38.90;20.77;95882.75;4932287;29;20042;-55
2022/07/21 16:36:56;;;;;;;12.52;11.73;;;56.40;13.60;;;38.59;20.94;95883.19;4914887;29;20482;-56
2022/07/21 16:39:22;;;;;;;13.75;12.57;;;56.20;13.50;;;38.68;20.51;95877.78;4930834;28;20034;-50
2022/07/21 16:41:54;;;;;;;13.20;12.30;;;56.10;13.50;;;38.66;20.78;95877.41;5008359;28;20016;-56
2022/07/21 16:44:29;;;;;;;11.65;10.77;;;56.00;13.50;;;38.31;21.17;95879.97;4947300;28;20497;-55
2022/07/21 16:46:58;;;;;;;12.27;11.23;;;56.00;13.50;;;38.01;20.96;95880.38;5005454;28;20020;-53
2022/07/21 16:49:25;;;;;;;12.47;11.63;;;55.80;13.40;;;38.12;21.23;95875.34;4942246;28;20019;-53
2022/07/21 16:51:53;;;;;;;11.32;10.43;;;55.50;13.40;;;37.98;21.75;95879.25;4979592;28;20027;-56
2022/07/21 16:54:19;;;;;;;12.20;11.40;;;55.40;13.50;;;37.97;21.45;95874.94;4932128;29;20031;-52
2022/07/21 16:56:45;;;;;;;11.82;10.85;;;55.30;13.50;;;38.00;21.50;95874.06;4927900;29;20041;-53
2022/07/21 16:59:20;;;;;;;11.60;10.65;;;55.30;13.60;;;38.04;21.16;95880.28;4935721;28;20031;-58
2022/07/21 17:01:52;;;;;;;10.48;9.75;;;55.20;13.60;;;37.96;21.02;95882.50;4946548;29;20023;-55
2022/07/21 17:04:23;;;;;;;10.65;9.80;;;55.10;13.50;;;37.79;21.43;95878.13;4931939;29;20555;-55
2022/07/21 17:06:49;;;;;;;11.23;10.32;;;55.00;13.60;;;37.97;21.26;95875.72;4929318;29;20421;-55
2022/07/21 17:09:21;;;;;;;11.57;10.70;;;54.90;13.40;;;38.23;21.26;95878.59;4944991;29;20037;-52
2022/07/21 17:11:50;;;;;;;10.30;9.45;;;55.10;13.50;;;37.93;21.38;95871.47;4951090;28;20034;-54
2022/07/21 17:14:18;;;;;;;7.88;7.28;;;55.10;13.40;;;37.22;21.99;95874.72;4949381;29;20397;-55
2022/07/21 17:16:47;;;;;;;6.32;5.72;;;54.10;13.50;;;36.36;22.68;95870.97;4933245;29;20034;-55
2022/07/21 17:19:13;;;;;;;6.60;5.90;;;51.80;14.00;;;35.54;23.65;95872.44;4947574;29;20416;-56
2022/07/21 17:22:01;;;;;;;6.03;5.05;;;49.40;15.10;;;34.67;24.41;95874.81;4937811;29;20390;-57
2022/07/21 17:24:27;;;;;;;5.57;5.07;;;46.70;16.30;;;34.05;25.21;95865.63;4949593;29;20072;-57
2022/07/21 17:26:53;;;;;;;5.70;5.10;;;44.70;17.20;;;33.68;26.22;95873.88;4945914;28;20035;-56
2022/07/21 17:29:22;;;;;;;5.35;4.85;;;43.00;18.30;;;33.16;26.84;95864.38;4959668;28;20026;-54
2022/07/21 17:31:48;;;;;;;5.28;4.50;;;41.60;19.20;;;32.77;27.23;95866.56;5015614;28;20224;-52
2022/07/21 17:34:31;;;;;;;4.45;4.05;;;40.40;19.90;;;32.13;30.51;95868.38;4941821;28;20019;-56
2022/07/21 17:37:01;;;;;;;6.18;4.60;;;39.30;21.30;;;31.46;29.92;95864.47;4937095;28;20481;-56
2022/07/21 17:39:33;;;;;;;5.38;4.88;;;38.20;21.80;;;30.88;31.01;95869.13;4976098;28;20027;-50
2022/07/21 17:42:02;;;;;;;4.65;4.25;;;37.40;22.50;;;30.58;30.92;95871.34;4967465;28;20367;-55
2022/07/21 17:44:34;;;;;;;5.72;5.10;;;36.60;23.20;;;30.26;31.52;95872.00;4941335;28;20072;-55
2022/07/21 17:47:00;;;;;;;4.78;4.38;;;36.00;23.80;;;30.10;31.96;95866.81;4937464;28;20362;-47
2022/07/21 17:49:26;;;;;;;5.60;4.40;;;35.40;24.20;;;29.78;32.66;95868.59;4940451;28;20043;-52
2022/07/21 17:51:54;;;;;;;7.13;4.53;;;34.90;24.70;;;29.56;32.63;95864.88;4938596;28;20027;-53
2022/07/21 17:54:20;;;;;;;5.15;4.65;;;34.50;25.30;;;29.38;33.59;95859.25;4946881;28;20121;-50
2022/07/21 17:58:42;;;;;;;5.22;4.70;;;34.10;25.60;;;29.10;35.60;95866.03;4933072;28;20080;-56
2022/07/21 17:59:45;;;;;;;5.13;4.63;;;33.70;26.50;;;28.75;35.94;95866.44;4929668;29;20043;-56
2022/07/21 18:02:11;;;;;;;6.00;5.18;;;33.30;27.00;;;28.50;36.04;95866.97;4929606;29;20042;-54
2022/07/21 18:04:46;;;;;;;6.60;4.40;;;33.00;27.40;;;28.16;38.16;95866.09;4929348;29;20029;-55
2022/07/21 18:07:15;;;;;;;5.22;4.72;;;32.70;28.10;;;27.92;37.75;95867.34;4930505;29;20087;-53
2022/07/21 18:09:41;;;;;;;7.75;4.50;;;32.40;28.40;;;27.59;38.83;95873.50;4929395;28;20020;-54
2022/07/21 18:12:10;;;;;;;4.97;4.20;;;32.10;28.70;;;27.45;40.24;95874.03;4913680;29;20447;-52
2022/07/21 18:14:35;;;;;;;4.80;4.30;;;31.80;29.40;;;27.26;41.71;95869.44;4929289;29;20106;-53
2022/07/21 18:17:08;;;;;;;4.32;3.92;;;31.50;29.90;;;27.09;40.96;95867.16;4929330;29;20438;-55
2022/07/21 18:19:37;;;;;;;6.03;4.65;;;31.30;30.50;;;26.81;40.27;95865.50;4945044;28;20023;-48
2022/07/21 18:22:03;;;;;;;5.70;4.57;;;31.00;30.40;;;26.50;42.58;95864.53;4930261;29;20038;-52
2022/07/21 18:24:28;;;;;;;8.05;4.60;;;30.80;31.00;;;26.33;43.77;95867.69;4930190;28;20027;-53
2022/07/21 18:26:57;;;;;;;4.90;4.35;;;30.60;31.70;;;26.15;44.42;95870.03;4937620;29;20190;-50
2022/07/21 18:29:26;;;;;;;6.30;4.57;;;30.40;32.40;;;25.93;44.48;95862.53;4915419;28;20014;-52
2022/07/21 18:31:55;;;;;;;5.85;3.92;;;30.10;33.00;;;25.76;45.05;95869.13;4935403;28;20042;-55
2022/07/21 18:34:21;;;;;;;4.80;4.18;;;29.90;33.30;;;25.54;46.18;95867.84;4949391;29;20048;-52
2022/07/21 18:36:47;;;;;;;4.20;3.80;;;29.70;33.90;;;25.26;46.52;95876.94;4944818;28;20088;-51
2022/07/21 18:39:13;;;;;;;5.60;3.60;;;29.50;34.20;;;25.13;46.78;95869.97;4948893;29;20026;-54
2022/07/21 18:41:39;;;;;;;5.97;3.97;;;29.20;34.70;;;24.91;46.76;95866.72;4946473;29;20389;-52
2022/07/21 18:44:05;;;;;;;8.98;3.78;;;29.00;34.90;;;24.80;47.23;95864.84;4948418;29;20034;-51
2022/07/21 18:46:31;;;;;;;6.43;4.32;;;28.80;35.20;;;24.62;47.36;95864.34;4946651;29;20035;-51
2022/07/21 18:48:58;;;;;;;5.70;4.13;;;28.60;35.60;;;24.44;48.41;95863.84;4939918;28;20026;-45
2022/07/21 18:51:27;;;;;;;5.22;4.03;;;28.40;36.10;;;24.26;47.91;95865.28;4937540;28;20026;-51
2022/07/21 18:53:59;;;;;;;4.93;4.28;;;28.20;36.20;;;24.11;48.62;95869.53;4935681;29;20062;-55
2022/07/21 18:56:26;;;;;;;7.50;3.88;;;28.10;36.90;;;23.96;50.11;95862.84;4943167;28;20022;-51
2022/07/21 18:59:14;;;;;;;4.65;3.78;;;27.80;37.20;;;23.71;50.73;95868.34;4952700;28;20038;-50
2022/07/21 19:01:40;;;;;;;5.05;3.92;;;27.60;37.70;;;23.49;52.05;95872.28;4944530;28;20039;-53
2022/07/21 19:04:08;;;;;;;4.57;4.18;;;27.50;38.10;;;23.32;51.69;95861.66;4949135;28;20034;-47
2022/07/21 19:06:34;;;;;;;4.50;3.45;;;27.20;38.60;;;23.13;52.15;95872.25;5021014;28;20119;-51
2022/07/21 19:09:06;;;;;;;10.05;3.90;;;27.00;38.80;;;23.00;52.75;95869.56;4950293;28;20023;-54
2022/07/21 19:11:34;;;;;;;8.35;4.47;;;26.80;39.20;;;22.84;53.28;95874.00;4950579;28;20030;-51
2022/07/21 19:14:03;;;;;;;6.38;4.07;;;26.70;39.80;;;22.64;53.90;95884.59;4888943;28;29585;-56
2022/07/21 19:16:29;;;;;;;4.50;3.92;;;26.50;40.10;;;22.48;55.01;95877.41;4914536;28;20129;-55
2022/07/21 19:18:57;;;;;;;6.80;4.00;;;26.30;40.50;;;22.29;56.23;95889.53;4929088;28;20520;-54
2022/07/21 19:21:23;;;;;;;4.38;3.90;;;26.10;40.90;;;22.16;57.44;95888.69;4928538;28;20522;-55
2022/07/21 19:23:49;;;;;;;4.75;3.88;;;25.90;41.40;;;21.99;57.28;95887.97;4928518;29;20058;-52
2022/07/21 19:26:15;;;;;;;4.57;3.65;;;25.80;41.80;;;21.84;57.45;95887.47;4928613;29;20039;-55
2022/07/21 19:28:41;;;;;;;4.05;3.30;;;25.60;42.20;;;21.65;57.41;95890.56;4928890;28;20539;-54
2022/07/21 19:31:07;;;;;;;6.60;3.83;;;25.50;42.50;;;21.53;58.31;95885.09;4927752;28;20478;-51
2022/07/21 19:33:34;;;;;;;5.60;4.03;;;25.30;42.80;;;21.40;59.04;95889.63;4927064;29;20023;-53
2022/07/21 19:36:00;;;;;;;4.70;3.60;;;25.20;43.20;;;21.36;58.93;95887.88;4927507;28;20038;-52
2022/07/21 19:38:26;;;;;;;5.80;3.97;;;25.10;44.20;;;21.28;59.75;95892.19;4910729;29;20122;-55
2022/07/21 19:40:52;;;;;;;4.20;3.80;;;25.00;43.90;;;21.12;59.18;95888.41;4908633;29;20038;-53
2022/07/21 19:43:18;;;;;;;5.65;3.78;;;24.80;44.00;;;21.01;60.34;95899.59;4920594;28;20535;-52
2022/07/21 19:45:44;;;;;;;5.45;3.97;;;24.70;44.40;;;20.95;60.87;95898.19;4925592;29;20097;-54
2022/07/21 19:48:09;;;;;;;4.82;3.67;;;24.60;44.70;;;20.84;60.22;95890.72;4942401;29;20489;-55
2022/07/21 19:50:35;;;;;;;4.65;3.75;;;24.50;44.90;;;20.74;61.12;95891.88;4927420;29;20035;-55
2022/07/21 19:53:04;;;;;;;5.60;3.67;;;24.40;45.10;;;20.69;62.36;95889.34;4930573;29;20034;-53
2022/07/21 19:55:39;;;;;;;5.65;3.92;;;24.30;45.70;;;20.60;61.58;95892.06;4931987;29;20366;-54
2022/07/21 19:58:05;;;;;;;3.58;3.10;;;24.20;46.10;;;20.56;60.92;95893.84;4930276;29;20043;-52
2022/07/21 20:00:32;;;;;;;4.65;3.22;;;24.20;45.90;;;20.49;59.82;95886.16;4932083;29;20488;-52
2022/07/21 20:02:58;;;;;;;4.95;3.45;;;24.10;46.00;;;20.44;61.26;95894.44;4930049;28;20474;-50
2022/07/21 20:05:24;;;;;;;4.90;3.55;;;24.00;46.20;;;20.38;61.75;95884.91;4997274;28;20074;-54
2022/07/21 20:07:51;;;;;;;5.03;3.40;;;23.90;46.50;;;20.36;61.46;95897.94;4922153;29;20027;-50
2022/07/21 20:10:20;;;;;;;5.40;3.63;;;23.90;46.60;;;20.24;62.03;95895.88;4916771;29;20073;-52
2022/07/21 20:12:59;;;;;;;3.70;3.35;;;23.80;46.80;;;20.13;62.91;95897.31;4940232;29;20063;-54
2022/07/21 20:15:30;;;;;;;4.15;3.55;;;23.70;47.30;;;20.04;64.86;95899.22;4911284;28;20028;-56
2022/07/21 20:17:56;;;;;;;8.40;4.57;;;23.60;47.50;;;19.95;64.64;95899.22;4926020;29;20032;-56
2022/07/21 20:20:22;;;;;;;4.55;3.60;;;23.50;47.70;;;19.78;66.04;95900.00;4993930;28;20066;-54
2022/07/21 20:22:51;;;;;;;5.63;3.72;;;23.50;48.10;;;19.70;66.70;95899.97;4912270;29;20039;-54
2022/07/21 20:25:23;;;;;;;4.57;3.67;;;23.40;48.40;;;19.65;66.41;95900.91;4912713;29;20046;-57
2022/07/21 20:27:48;;;;;;;5.35;4.40;;;23.30;48.70;;;19.58;67.25;95906.72;4912695;29;20508;-49
2022/07/21 20:30:17;;;;;;;4.30;3.90;;;23.20;49.00;;;19.49;67.83;95905.13;4931516;28;20035;-55
2022/07/21 20:32:48;;;;;;;5.10;4.32;;;23.10;49.60;;;19.41;67.61;95902.09;4945703;28;20023;-55
2022/07/21 20:35:14;;;;;;;6.28;3.97;;;23.00;49.70;;;19.36;68.10;95907.63;4914781;29;20027;-54
2022/07/21 20:37:46;;;;;;;6.32;3.78;;;22.90;49.90;;;19.28;68.42;95899.50;4930617;29;20042;-57
2022/07/21 20:40:17;;;;;;;7.43;3.90;;;22.90;50.40;;;19.21;68.27;95909.94;4930293;29;20104;-56
2022/07/21 20:42:44;;;;;;;7.45;4.25;;;22.80;50.40;;;19.14;68.60;95908.47;4914102;29;20503;-53
2022/07/21 20:45:11;;;;;;;4.43;3.80;;;22.70;50.60;;;19.08;68.61;95907.03;4930965;29;20027;-56
2022/07/21 20:47:37;;;;;;;7.03;3.97;;;22.70;50.80;;;19.02;68.68;95905.59;4913327;29;20403;-56
2022/07/21 20:50:07;;;;;;;5.90;4.30;;;22.60;50.90;;;18.95;68.96;95906.00;4921228;28;20435;-55
2022/07/21 20:52:33;;;;;;;4.68;4.00;;;22.50;51.20;;;18.89;69.24;95909.16;4895495;29;20437;-57
2022/07/21 20:55:02;;;;;;;6.85;4.40;;;22.50;51.20;;;18.79;69.88;95907.53;4910972;29;20043;-54
2022/07/21 20:57:30;;;;;;;5.68;4.00;;;22.40;51.40;;;18.70;69.22;95910.13;4910552;29;20494;-57
2022/07/21 21:00:07;;;;;;;6.30;4.22;;;22.30;51.50;;;18.65;70.34;95909.47;4910883;29;20106;-57
2022/07/21 21:02:39;;;;;;;5.15;3.80;;;22.30;52.00;;;18.59;71.09;95914.19;4911756;29;20062;-53
2022/07/21 21:05:07;;;;;;;4.87;4.37;;;22.20;52.30;;;18.53;71.61;95909.25;4926113;29;20047;-56
2022/07/21 21:07:35;;;;;;;5.90;4.00;;;22.10;52.30;;;18.46;71.85;95907.78;4923516;29;20335;-53
2022/07/21 21:10:01;;;;;;;5.65;4.10;;;22.10;52.60;;;18.43;71.29;95904.88;4926710;28;20081;-56
2022/07/21 21:12:32;;;;;;;8.10;4.03;;;22.00;52.70;;;18.32;70.88;95909.72;4875881;29;23400;-56
2022/07/21 21:14:58;;;;;;;6.05;4.15;;;21.90;52.70;;;18.26;71.33;95902.84;4919578;29;20054;-57
2022/07/21 21:17:24;;;;;;;4.32;3.75;;;21.90;52.80;;;18.25;71.61;95906.66;4931338;29;20100;-53
2022/07/21 21:19:50;;;;;;;6.80;3.70;;;21.90;53.10;;;18.21;71.69;95909.16;4930231;28;20019;-57
2022/07/21 21:22:16;;;;;;;6.57;4.10;;;21.80;53.20;;;18.13;70.50;95907.19;4931237;29;20549;-50
2022/07/21 21:24:48;;;;;;;5.15;3.83;;;21.80;53.20;;;18.09;69.33;95900.03;4931569;29;20469;-56
2022/07/21 21:27:19;;;;;;;5.83;3.80;;;21.70;53.00;;;18.06;68.73;95911.41;4931214;29;20058;-55
2022/07/21 21:29:45;;;;;;;4.38;3.47;;;21.70;52.80;;;18.01;70.16;95901.53;4930472;28;20283;-55
2022/07/21 21:32:11;;;;;;;5.50;3.78;;;21.60;52.90;;;17.94;70.55;95904.66;4931249;29;20025;-56
2022/07/21 21:34:40;;;;;;;5.82;3.90;;;21.60;53.00;;;17.95;70.19;95905.44;4931242;29;20433;-55
2022/07/21 21:37:06;;;;;;;6.32;3.70;;;21.50;53.20;;;17.94;70.68;95903.84;4929471;29;20027;-55
2022/07/21 21:39:41;;;;;;;5.72;3.53;;;21.50;53.20;;;17.89;71.26;95902.06;4930086;29;20031;-51
2022/07/21 21:42:09;;;;;;;4.22;3.60;;;21.50;53.30;;;17.90;70.62;95900.19;4931252;29;21305;-56
2022/07/21 21:44:43;;;;;;;6.28;3.80;;;21.50;53.50;;;17.85;71.21;95900.28;4930302;29;20489;-56
2022/07/21 21:47:08;;;;;;;4.70;3.53;;;21.40;53.50;;;17.83;71.13;95900.59;4929537;29;20501;-55
2022/07/21 21:49:34;;;;;;;5.88;4.07;;;21.40;53.60;;;17.80;71.39;95902.00;4931078;29;20068;-56
2022/07/21 21:52:00;;;;;;;7.55;3.55;;;21.40;53.70;;;17.79;71.86;95897.69;4940460;23;20512;-52
2022/07/21 21:54:27;;;;;;;5.72;4.15;;;21.40;53.90;;;17.77;71.82;95902.59;4903804;29;20048;-50
2022/07/21 21:56:53;;;;;;;8.38;4.05;;;21.30;53.90;;;17.72;71.22;95896.47;4901328;29;20033;-54
2022/07/21 21:59:19;;;;;;;5.22;3.90;;;21.30;54.00;;;17.71;70.10;95906.47;4890529;29;20081;-51
2022/07/21 22:01:51;;;;;;;6.07;4.10;;;21.30;53.90;;;17.71;70.91;95903.78;4892760;28;20522;-52
2022/07/21 22:04:27;;;;;;;4.57;3.83;;;21.30;53.90;;;17.69;71.54;95897.88;4894900;29;20036;-52
2022/07/21 22:06:52;;;;;;;5.68;4.10;;;21.30;54.10;;;17.67;71.77;95904.66;4895158;29;20031;-56
2022/07/21 22:09:22;;;;;;;6.20;4.03;;;21.30;54.10;;;17.59;73.22;95900.78;4911909;29;20036;-54
2022/07/21 22:11:48;;;;;;;4.85;4.25;;;21.20;54.40;;;17.57;72.87;95902.97;4900018;29;20027;-54
2022/07/21 22:14:14;;;;;;;8.07;3.97;;;21.20;54.40;;;17.50;72.22;95907.97;4875767;28;20665;-54
2022/07/21 22:16:40;;;;;;;5.22;3.92;;;21.20;54.40;;;17.47;72.02;95895.91;4876133;29;20115;-50
2022/07/21 22:19:09;;;;;;;6.72;4.50;;;21.10;54.40;;;17.45;73.07;95906.16;4860681;28;20020;-50
2022/07/21 22:21:39;;;;;;;4.95;4.00;;;21.10;54.80;;;17.42;72.35;95906.78;4893157;29;20023;-53
2022/07/21 22:24:05;;;;;;;6.85;4.15;;;21.00;54.60;;;17.39;73.12;95901.19;4892506;29;20020;-50
2022/07/21 22:26:35;;;;;;;6.00;4.13;;;21.00;54.70;;;17.27;74.24;95904.41;4892846;29;20028;-50
2022/07/21 22:29:00;;;;;;;4.72;3.85;;;21.00;55.00;;;17.25;73.42;95899.31;4894357;28;20070;-49
